createdAt,value
2022-09-09T00:02:10.118Z,19.82
2022-09-09T00:04:39.957Z,19.70
2022-09-09T00:07:19.425Z,19.54
2022-09-09T00:10:13.177Z,19.46
2022-09-09T00:13:01.466Z,19.45
2022-09-09T00:16:11.655Z,19.37
2022-09-09T00:18:56.350Z,19.47
2022-09-09T00:21:39.892Z,19.45
2022-09-09T00:24:33.176Z,19.48
2022-09-09T00:27:30.961Z,19.49
2022-09-09T00:30:23.856Z,19.40
2022-09-09T00:32:59.142Z,19.50
2022-09-09T00:35:46.441Z,19.34
2022-09-09T00:38:39.441Z,19.43
2022-09-09T00:41:36.164Z,19.47
2022-09-09T00:44:37.842Z,19.48
2022-09-09T00:47:26.997Z,19.42
2022-09-09T00:50:46.913Z,19.38
2022-09-09T00:53:53.184Z,19.46
2022-09-09T00:56:34.096Z,19.50
2022-09-09T00:59:05.209Z,19.43
2022-09-09T01:01:32.807Z,19.48
2022-09-09T01:04:00.700Z,19.51
2022-09-09T01:06:39.546Z,19.56
2022-09-09T01:09:43.480Z,19.47
2022-09-09T01:12:27.968Z,19.45
2022-09-09T01:15:21.995Z,19.44
2022-09-09T01:18:09.038Z,19.46
2022-09-09T01:21:11.936Z,19.47
2022-09-09T01:24:15.689Z,19.53
2022-09-09T01:27:03.695Z,19.51
2022-09-09T01:29:31.740Z,19.53
2022-09-09T01:32:03.386Z,19.59
2022-09-09T01:34:40.438Z,19.40
2022-09-09T01:37:11.681Z,19.47
2022-09-09T01:39:44.187Z,19.13
2022-09-09T01:42:17.241Z,19.21
2022-09-09T01:44:45.671Z,18.97
2022-09-09T01:47:13.904Z,18.91
2022-09-09T01:49:56.382Z,18.91
2022-09-09T01:52:27.764Z,18.81
2022-09-09T01:54:59.063Z,18.94
2022-09-09T01:57:40.894Z,19.01
2022-09-09T02:00:13.280Z,18.96
2022-09-09T02:03:02.156Z,18.84
2022-09-09T02:05:42.640Z,18.96
2022-09-09T02:08:30.274Z,18.86
2022-09-09T02:11:14.633Z,18.88
2022-09-09T02:14:22.620Z,18.78
2022-09-09T02:17:00.571Z,18.82
2022-09-09T02:20:07.364Z,18.65
2022-09-09T02:22:46.875Z,18.54
2022-09-09T02:25:20.645Z,18.64
2022-09-09T02:27:52.568Z,18.58
2022-09-09T02:30:21.471Z,18.37
2022-09-09T02:33:00.490Z,18.33
2022-09-09T02:35:44.248Z,18.29
2022-09-09T02:38:16.686Z,18.29
2022-09-09T02:40:53.495Z,18.37
2022-09-09T02:43:21.372Z,18.48
2022-09-09T02:46:28.009Z,18.59
2022-09-09T02:49:11.006Z,18.54
2022-09-09T02:52:06.922Z,18.42
2022-09-09T02:54:40.476Z,18.46
2022-09-09T02:57:22.442Z,18.46
2022-09-09T02:59:53.065Z,18.54
2022-09-09T03:02:20.887Z,18.44
2022-09-09T03:04:54.096Z,18.40
2022-09-09T03:07:22.061Z,18.45
2022-09-09T03:09:52.054Z,18.33
2022-09-09T03:12:19.468Z,18.37
2022-09-09T03:14:47.743Z,18.38
2022-09-09T03:17:15.268Z,18.37
2022-09-09T03:19:51.190Z,18.40
2022-09-09T03:22:18.639Z,18.47
2022-09-09T03:24:47.988Z,18.44
2022-09-09T03:27:20.534Z,18.48
2022-09-09T03:29:52.064Z,18.37
2022-09-09T03:32:23.638Z,18.54
2022-09-09T03:34:51.712Z,18.44
2022-09-09T03:37:23.543Z,18.49
2022-09-09T03:39:51.982Z,18.43
2022-09-09T03:42:20.271Z,18.50
2022-09-09T03:44:51.508Z,18.52
2022-09-09T03:47:22.912Z,18.48
2022-09-09T03:49:53.043Z,18.57
2022-09-09T03:52:23.836Z,18.54
2022-09-09T03:54:53.925Z,18.55
2022-09-09T03:57:22.737Z,18.53
2022-09-09T03:59:51.049Z,18.63
2022-09-09T04:02:18.504Z,18.52
2022-09-09T04:04:46.055Z,18.41
2022-09-09T04:07:15.093Z,18.35
2022-09-09T04:09:42.641Z,18.31
2022-09-09T04:12:12.377Z,18.44
2022-09-09T04:14:39.834Z,18.57
2022-09-09T04:17:08.915Z,18.45
2022-09-09T04:19:36.579Z,18.44
2022-09-09T04:22:04.265Z,18.46
2022-09-09T04:24:31.735Z,18.28
2022-09-09T04:27:01.244Z,18.31
2022-09-09T04:29:29.139Z,18.37
2022-09-09T04:31:57.017Z,18.39
2022-09-09T04:34:24.755Z,18.41
2022-09-09T04:36:53.708Z,18.58
2022-09-09T04:39:23.376Z,18.68
2022-09-09T04:41:52.543Z,18.77
2022-09-09T04:44:19.962Z,18.89
2022-09-09T04:46:48.336Z,18.95
2022-09-09T04:49:16.145Z,19.05
2022-09-09T04:51:44.552Z,19.23
2022-09-09T04:54:12.748Z,19.35
2022-09-09T04:56:43.493Z,19.35
2022-09-09T04:59:11.986Z,19.51
2022-09-09T05:01:46.661Z,19.69
2022-09-09T05:04:16.288Z,19.72
2022-09-09T05:06:47.150Z,19.88
2022-09-09T05:09:15.004Z,19.68
2022-09-09T05:11:42.924Z,19.74
2022-09-09T05:14:26.155Z,19.64
2022-09-09T05:16:54.732Z,19.65
2022-09-09T05:19:23.847Z,19.56
2022-09-09T05:21:53.087Z,19.85
2022-09-09T05:24:25.495Z,20.11
2022-09-09T05:27:00.913Z,20.22
2022-09-09T05:29:29.278Z,20.36
2022-09-09T05:31:57.852Z,20.54
2022-09-09T05:34:25.721Z,20.74
2022-09-09T05:36:54.730Z,21.01
2022-09-09T05:39:23.867Z,21.29
2022-09-09T05:41:52.259Z,21.70
2022-09-09T05:44:20.404Z,21.67
2022-09-09T05:46:48.592Z,21.32
2022-09-09T05:49:16.710Z,21.62
2022-09-09T05:51:44.942Z,21.67
2022-09-09T05:54:16.467Z,21.66
2022-09-09T05:56:51.902Z,22.00
2022-09-09T05:59:20.469Z,21.70
2022-09-09T06:01:48.700Z,21.88
2022-09-09T06:04:25.935Z,21.80
2022-09-09T06:06:54.230Z,21.94
2022-09-09T06:09:23.902Z,21.78
2022-09-09T06:11:51.460Z,21.92
2022-09-09T06:14:20.416Z,22.05
2022-09-09T06:16:50.067Z,22.31
2022-09-09T06:19:25.466Z,22.26
2022-09-09T06:21:53.078Z,22.77
2022-09-09T06:24:21.066Z,22.75
2022-09-09T06:26:49.627Z,22.89
2022-09-09T06:29:22.022Z,22.81
2022-09-09T06:31:49.832Z,22.90
2022-09-09T06:34:21.986Z,22.94
2022-09-09T06:37:09.772Z,22.78
2022-09-09T06:39:42.570Z,23.33
2022-09-09T06:42:10.554Z,23.16
2022-09-09T06:45:04.332Z,22.95
2022-09-09T06:47:40.390Z,23.21
2022-09-09T06:50:09.347Z,23.24
2022-09-09T06:52:37.574Z,23.15
2022-09-09T06:55:25.038Z,23.31
2022-09-09T06:57:53.404Z,23.40
2022-09-09T07:00:25.074Z,23.47
2022-09-09T07:02:52.987Z,23.92
2022-09-09T07:05:20.614Z,24.36
2022-09-09T07:07:48.102Z,24.36
2022-09-09T07:10:18.755Z,24.05
2022-09-09T07:12:50.859Z,24.49
2022-09-09T07:15:19.699Z,24.38
2022-09-09T07:17:47.973Z,24.45
2022-09-09T07:20:16.807Z,24.59
2022-09-09T07:22:44.502Z,24.56
2022-09-09T07:25:12.502Z,24.46
2022-09-09T07:27:41.742Z,24.56
2022-09-09T07:30:13.733Z,24.57
2022-09-09T07:32:43.854Z,24.81
2022-09-09T07:35:11.491Z,24.87
2022-09-09T07:37:39.436Z,25.26
2022-09-09T07:40:07.798Z,25.44
2022-09-09T07:42:37.415Z,25.57
2022-09-09T07:45:06.659Z,25.73
2022-09-09T07:47:34.508Z,25.98
2022-09-09T07:50:02.894Z,25.69
2022-09-09T07:52:32.297Z,26.00
2022-09-09T07:55:05.573Z,26.09
2022-09-09T07:57:34.341Z,26.10
2022-09-09T08:00:23.795Z,26.05
2022-09-09T08:02:55.441Z,26.06
2022-09-09T08:05:23.925Z,26.62
2022-09-09T08:07:54.779Z,26.31
2022-09-09T08:10:22.597Z,26.40
2022-09-09T08:13:14.691Z,26.71
2022-09-09T08:15:42.159Z,27.09
2022-09-09T08:18:10.019Z,26.72
2022-09-09T08:20:38.981Z,26.76
2022-09-09T08:23:08.593Z,27.00
2022-09-09T08:25:36.484Z,26.74
2022-09-09T08:28:04.711Z,26.86
2022-09-09T08:30:32.387Z,27.03
2022-09-09T08:33:01.171Z,27.30
2022-09-09T08:35:33.616Z,27.08
2022-09-09T08:38:05.489Z,27.25
2022-09-09T08:40:50.498Z,26.82
2022-09-09T08:43:22.352Z,26.99
2022-09-09T08:46:07.544Z,27.28
2022-09-09T08:49:47.719Z,27.52
2022-09-09T08:52:25.783Z,27.20
2022-09-09T08:54:56.289Z,27.53
2022-09-09T08:57:45.439Z,27.33
2022-09-09T09:00:14.291Z,27.69
2022-09-09T09:02:59.659Z,27.48
2022-09-09T09:05:39.162Z,27.71
2022-09-09T09:08:44.509Z,27.79
2022-09-09T09:11:12.241Z,27.90
2022-09-09T09:14:02.042Z,27.36
2022-09-09T09:16:48.907Z,27.49
2022-09-09T09:19:19.100Z,27.62
2022-09-09T09:22:13.203Z,27.86
2022-09-09T09:24:55.356Z,28.33
2022-09-09T09:27:37.811Z,28.06
2022-09-09T09:30:29.893Z,27.89
2022-09-09T09:33:28.317Z,28.12
2022-09-09T09:35:57.030Z,28.48
2022-09-09T09:41:19.396Z,28.97
2022-09-09T09:43:55.768Z,28.82
2022-09-09T09:46:26.858Z,29.21
2022-09-09T09:49:11.424Z,29.12
2022-09-09T09:51:41.271Z,29.01
2022-09-09T09:54:14.620Z,29.35
2022-09-09T09:56:45.838Z,29.05
2022-09-09T09:59:40.724Z,29.22
2022-09-09T10:02:44.187Z,29.64
2022-09-09T10:05:26.584Z,29.79
2022-09-09T10:08:03.524Z,30.34
2022-09-09T10:11:07.123Z,30.24
2022-09-09T10:14:04.454Z,30.45
2022-09-09T10:17:12.353Z,30.68
2022-09-09T10:19:56.203Z,30.89
2022-09-09T10:22:35.353Z,30.42
2022-09-09T10:25:51.809Z,30.87
2022-09-09T10:28:49.268Z,31.51
2022-09-09T10:32:02.561Z,31.29
2022-09-09T10:34:57.823Z,31.31
2022-09-09T10:38:01.680Z,30.84
2022-09-09T10:40:56.545Z,31.07
2022-09-09T10:43:32.802Z,31.37
2022-09-09T10:46:23.167Z,31.72
2022-09-09T10:49:23.223Z,32.28
2022-09-09T10:52:12.011Z,32.04
2022-09-09T10:55:53.981Z,32.46
2022-09-09T10:58:50.060Z,32.13
2022-09-09T11:01:33.178Z,32.61
2022-09-09T11:04:23.375Z,32.67
2022-09-09T11:06:56.085Z,32.42
2022-09-09T11:09:29.658Z,32.37
2022-09-09T11:12:00.102Z,32.86
2022-09-09T11:14:44.709Z,33.19
2022-09-09T11:17:21.999Z,33.30
2022-09-09T11:19:49.501Z,33.34
2022-09-09T11:22:44.476Z,33.50
2022-09-09T11:25:14.735Z,34.00
2022-09-09T11:28:28.251Z,33.64
2022-09-09T11:34:50.496Z,34.07
2022-09-09T11:37:39.175Z,34.36
2022-09-09T11:40:18.766Z,34.42
2022-09-09T11:42:49.296Z,34.36
2022-09-09T11:45:29.733Z,34.13
2022-09-09T11:48:01.307Z,34.07
2022-09-09T11:50:37.750Z,34.14
2022-09-09T11:53:17.548Z,34.36
2022-09-09T11:55:45.244Z,34.30
2022-09-09T11:58:12.603Z,34.32
2022-09-09T12:00:45.411Z,34.05
2022-09-09T12:03:38.367Z,34.26
2022-09-09T12:06:33.474Z,34.10
2022-09-09T12:09:46.155Z,33.92
2022-09-09T12:12:13.502Z,33.83
2022-09-09T12:15:10.006Z,33.33
2022-09-09T12:17:50.348Z,33.13
2022-09-09T12:20:39.975Z,32.95
2022-09-09T12:23:34.381Z,32.60
2022-09-09T12:26:51.844Z,32.09
2022-09-09T12:29:41.045Z,31.97
2022-09-09T12:32:15.277Z,32.13
2022-09-09T12:34:53.460Z,32.45
2022-09-09T12:37:52.385Z,32.32
2022-09-09T12:40:33.412Z,32.73
2022-09-09T12:43:02.502Z,32.97
2022-09-09T12:45:37.021Z,33.25
2022-09-09T12:48:13.105Z,33.26
2022-09-09T12:50:48.915Z,33.44
2022-09-09T12:53:37.714Z,33.41
2022-09-09T12:56:09.908Z,33.24
2022-09-09T12:58:41.376Z,33.27
2022-09-09T13:01:24.653Z,33.13
2022-09-09T13:03:54.662Z,33.58
2022-09-09T13:06:29.465Z,33.83
2022-09-09T13:09:03.937Z,34.19
2022-09-09T13:11:43.179Z,34.71
2022-09-09T13:14:33.583Z,35.42
2022-09-09T13:17:04.492Z,35.48
2022-09-09T13:19:38.850Z,35.41
2022-09-09T13:22:28.538Z,34.79
2022-09-09T13:25:15.109Z,34.74
2022-09-09T13:28:03.528Z,34.81
2022-09-09T13:30:41.320Z,34.36
2022-09-09T13:33:15.531Z,34.04
2022-09-09T13:35:57.119Z,34.03
2022-09-09T13:38:27.717Z,33.85
2022-09-09T13:41:24.977Z,33.31
2022-09-09T13:43:56.214Z,33.07
2022-09-09T13:46:36.797Z,33.40
2022-09-09T13:49:13.188Z,33.35
2022-09-09T13:51:48.029Z,33.71
2022-09-09T13:54:18.998Z,34.58
2022-09-09T13:56:48.240Z,34.73
2022-09-09T13:59:22.429Z,34.71
2022-09-09T14:01:50.336Z,35.05
2022-09-09T14:04:17.941Z,35.14
2022-09-09T14:06:47.004Z,35.17
2022-09-09T14:09:17.897Z,35.75
2022-09-09T14:11:47.439Z,36.32
2022-09-09T14:14:15.080Z,36.10
2022-09-09T14:16:42.620Z,35.58
2022-09-09T14:19:11.263Z,35.52
2022-09-09T14:21:38.830Z,35.48
2022-09-09T14:24:07.230Z,35.24
2022-09-09T14:26:34.681Z,35.07
2022-09-09T14:29:02.800Z,34.22
2022-09-09T14:31:30.705Z,33.83
2022-09-09T14:33:58.237Z,33.38
2022-09-09T16:13:55.402Z,27.83
2022-09-09T16:16:26.997Z,27.85
2022-09-09T16:18:58.229Z,27.97
2022-09-09T16:21:33.055Z,28.04
2022-09-09T16:24:03.758Z,28.09
2022-09-09T16:26:34.129Z,28.31
2022-09-09T16:29:03.729Z,28.38
2022-09-09T16:31:36.971Z,28.38
2022-09-09T16:34:04.802Z,28.27
2022-09-09T16:36:36.538Z,28.45
2022-09-09T16:39:10.925Z,28.22
2022-09-09T16:41:40.258Z,28.26
2022-09-09T16:44:13.296Z,28.24
2022-09-09T16:46:44.567Z,28.19
2022-09-09T16:49:16.917Z,28.07
2022-09-09T16:51:54.374Z,28.03
2022-09-09T16:54:24.442Z,28.06
2022-09-09T16:56:52.173Z,28.05
2022-09-09T16:59:22.554Z,28.10
2022-09-09T17:01:52.316Z,28.02
2022-09-09T17:04:25.104Z,28.02
2022-09-09T17:06:55.764Z,27.96
2022-09-09T17:09:24.382Z,28.11
2022-09-09T17:11:53.431Z,28.08
2022-09-09T17:14:22.844Z,28.14
2022-09-09T17:16:50.960Z,27.93
2022-09-09T17:19:18.943Z,27.84
2022-09-09T17:22:17.862Z,27.84
2022-09-09T17:24:39.584Z,27.88
2022-09-09T17:27:07.553Z,27.75
2022-09-09T17:29:39.197Z,27.75
2022-09-09T17:32:08.488Z,27.69
2022-09-09T17:34:39.031Z,27.77
2022-09-09T17:37:09.181Z,28.13
2022-09-09T17:39:37.933Z,28.03
2022-09-09T17:42:06.122Z,27.83
2022-09-09T17:44:33.800Z,27.74
2022-09-09T17:47:01.804Z,27.53
2022-09-09T17:49:29.832Z,27.36
2022-09-09T17:51:58.920Z,27.48
2022-09-09T17:54:28.280Z,27.33
2022-09-09T17:56:55.820Z,27.13
2022-09-09T17:59:33.625Z,27.06
2022-09-09T18:02:02.058Z,27.07
2022-09-09T18:04:30.151Z,26.99
2022-09-09T18:06:59.921Z,26.88
2022-09-09T18:09:31.531Z,26.75
2022-09-09T18:12:01.766Z,26.70
2022-09-09T18:14:31.994Z,26.65
2022-09-09T18:17:23.634Z,26.72
2022-09-09T18:19:51.654Z,26.78
2022-09-09T18:22:20.928Z,26.73
2022-09-09T18:24:50.410Z,26.70
2022-09-09T18:27:17.963Z,26.55
2022-09-09T18:29:46.059Z,26.52
2022-09-09T18:32:15.116Z,26.36
2022-09-09T18:34:42.890Z,26.60
2022-09-09T18:37:13.588Z,26.38
2022-09-09T18:39:41.525Z,26.27
2022-09-09T18:42:09.383Z,26.18
2022-09-09T18:44:38.035Z,26.19
2022-09-09T18:47:05.876Z,26.10
2022-09-09T18:49:33.531Z,26.01
2022-09-09T18:52:02.621Z,26.00
2022-09-09T18:54:35.588Z,25.88
2022-09-09T18:57:03.363Z,25.79
2022-09-09T18:59:33.271Z,25.91
2022-09-09T19:02:04.268Z,25.91
2022-09-09T19:04:33.266Z,25.67
2022-09-09T19:07:01.018Z,25.66
2022-09-09T19:09:34.333Z,25.70
2022-09-09T19:12:04.008Z,25.66
2022-09-09T19:14:34.809Z,25.75
2022-09-09T19:17:11.283Z,25.61
2022-09-09T19:19:43.691Z,25.45
2022-09-09T19:22:11.889Z,25.33
2022-09-09T19:24:40.922Z,25.30
2022-09-09T19:27:11.457Z,25.22
2022-09-09T19:29:43.420Z,25.24
2022-09-09T19:32:51.763Z,25.25
2022-09-09T19:35:02.602Z,25.28
2022-09-09T19:37:31.825Z,25.28
2022-09-09T19:39:59.519Z,25.29
2022-09-09T19:42:27.227Z,25.19
2022-09-09T19:45:01.430Z,25.13
2022-09-09T19:47:29.066Z,24.84
2022-09-09T19:49:56.703Z,24.81
2022-09-09T19:52:26.751Z,24.86
2022-09-09T19:54:57.095Z,24.89
2022-09-09T19:57:24.917Z,24.94
2022-09-09T19:59:52.782Z,25.00
2022-09-09T20:02:20.362Z,25.00
2022-09-09T20:04:48.010Z,25.02
2022-09-09T20:07:15.923Z,24.92
2022-09-09T20:09:43.401Z,24.94
2022-09-09T20:12:10.883Z,24.85
2022-09-09T20:14:39.890Z,24.79
2022-09-09T20:17:08.246Z,24.82
2022-09-09T20:19:35.943Z,24.89
2022-09-09T20:22:05.000Z,24.73
2022-09-09T20:24:32.639Z,24.70
2022-09-09T20:27:00.079Z,24.67
2022-09-09T20:29:27.538Z,24.61
2022-09-09T20:31:55.236Z,24.66
2022-09-09T20:34:27.301Z,24.74
2022-09-09T20:36:59.330Z,24.68
2022-09-09T20:39:27.877Z,24.58
2022-09-09T20:41:55.477Z,24.57
2022-09-09T20:44:24.648Z,24.37
2022-09-09T20:47:00.464Z,24.04
2022-09-09T20:49:28.139Z,23.99
2022-09-09T20:51:55.851Z,23.67
2022-09-09T20:54:26.403Z,23.65
2022-09-09T20:56:55.514Z,23.57
2022-09-09T20:59:26.507Z,23.51
2022-09-09T21:01:55.515Z,23.50
2022-09-09T21:04:25.130Z,23.15
2022-09-09T21:06:53.477Z,23.11
2022-09-09T21:09:24.668Z,23.39
2022-09-09T21:11:54.954Z,23.36
2022-09-09T21:14:23.207Z,23.35
2022-09-09T21:16:50.907Z,23.26
2022-09-09T21:19:18.758Z,23.17
2022-09-09T21:21:47.917Z,23.13
2022-09-09T21:24:15.682Z,23.05
2022-09-09T21:26:43.344Z,23.04
2022-09-09T21:29:10.967Z,23.06
2022-09-09T21:31:38.506Z,23.15
2022-09-09T21:34:05.973Z,23.08
2022-09-09T21:36:33.797Z,23.12
2022-09-09T21:39:01.324Z,23.11
2022-09-09T21:41:28.891Z,23.07
2022-09-09T21:43:56.840Z,23.12
2022-09-09T21:46:26.634Z,23.03
2022-09-09T21:48:57.736Z,23.05
2022-09-09T21:51:26.115Z,23.09
2022-09-09T21:53:57.106Z,23.11
2022-09-09T21:56:26.823Z,23.09
2022-09-09T21:59:04.805Z,23.02
2022-09-09T22:01:34.218Z,22.93
2022-09-09T22:04:02.014Z,23.03
2022-09-09T22:06:29.511Z,23.04
2022-09-09T22:08:59.081Z,23.02
2022-09-09T22:11:26.565Z,22.97
2022-09-09T22:13:54.027Z,22.84
2022-09-09T22:16:23.971Z,22.85
2022-09-09T22:19:00.264Z,22.77
2022-09-09T22:21:31.147Z,22.86
2022-09-09T22:24:02.420Z,22.78
2022-09-09T22:26:33.512Z,22.73
2022-09-09T22:29:01.451Z,22.70
2022-09-09T22:31:29.592Z,22.62
2022-09-09T22:33:57.452Z,22.61
2022-09-09T22:36:26.155Z,22.67
2022-09-09T22:38:54.188Z,22.66
2022-09-09T22:41:22.284Z,22.67
2022-09-09T22:43:49.735Z,22.48
2022-09-09T22:46:18.920Z,22.55
2022-09-09T22:48:47.257Z,22.44
2022-09-09T22:51:16.124Z,22.66
2022-09-09T22:53:47.278Z,22.70
2022-09-09T22:56:18.617Z,22.56
2022-09-09T22:58:47.245Z,22.42
2022-09-09T23:01:21.019Z,22.22
2022-09-09T23:03:50.615Z,22.15
2022-09-09T23:06:24.032Z,22.07
2022-09-09T23:08:55.983Z,22.02
2022-09-09T23:11:30.447Z,21.76
2022-09-09T23:14:00.856Z,21.80
2022-09-09T23:16:39.825Z,21.75
2022-09-09T23:19:11.566Z,21.77
2022-09-09T23:21:40.998Z,21.98
2022-09-09T23:24:14.253Z,22.15
2022-09-09T23:26:45.573Z,21.92
2022-09-09T23:29:14.269Z,21.73
2022-09-09T23:31:46.703Z,21.66
2022-09-09T23:34:14.536Z,21.49
2022-09-09T23:36:42.353Z,21.57
2022-09-09T23:39:11.877Z,21.49
2022-09-09T23:41:40.376Z,21.67
2022-09-09T23:44:08.433Z,21.81
2022-09-09T23:46:36.790Z,21.82
2022-09-09T23:49:05.053Z,21.72
2022-09-09T23:51:33.978Z,21.68
2022-09-09T23:54:04.822Z,21.54
2022-09-09T23:56:37.766Z,21.54
2022-09-09T23:59:07.378Z,21.56
